.
WxDataArchive / Data Records for 2015-05-27
2015-05-26 May 2015 2015-05-28

Data Records for Wednesday, 27 May 2015

Time	Temp	Chill	HIndex	Humid	Dewpt	 Wind 	HiWind	WindDir	Rain 	Barom
-----	----	-----	------	-----	-----	------	------	-------	-----	-----
00:00	70.1	70.1	70.1	83	64.7	0	1	248	0.00	29.893 
00:05	69.9	69.9	69.9	83	64.5	0	1	248	0.00	29.893 
00:10	69.9	69.9	69.9	83	64.5	0	1	248	0.00	29.893 
00:15	69.8	69.8	69.8	83	64.4	0	1	248	0.00	29.896 
00:20	69.8	69.8	69.8	83	64.4	0	0	---	0.00	29.896 
00:25	69.6	69.6	69.6	83	64.2	0	0	---	0.00	29.896 
00:30	69.6	69.6	69.6	82	63.9	0	0	---	0.00	29.896 
00:35	69.6	69.6	69.6	82	63.9	0	0	---	0.00	29.896 
00:40	69.4	69.4	69.4	82	63.7	0	0	---	0.00	29.896 
00:45	69.3	69.3	69.3	82	63.6	0	0	---	0.00	29.888 
00:50	69.3	69.3	69.3	82	63.6	0	0	---	0.00	29.888 
00:55	69.1	69.1	69.1	82	63.4	0	0	---	0.00	29.888 
01:00	68.9	68.9	68.9	81	62.8	0	0	---	0.00	29.887 
01:05	68.8	68.8	68.8	81	62.7	0	0	---	0.00	29.887 
01:10	68.6	68.6	68.6	80	62.2	0	1	248	0.00	29.887 
01:15	68.4	68.4	68.4	79	61.6	0	1	248	0.00	29.888 
01:20	68.4	68.4	68.4	79	61.6	0	0	---	0.00	29.888 
01:25	68.3	68.3	68.3	78	61.2	0	0	---	0.00	29.888 
01:30	68.1	68.1	68.1	78	61.0	0	0	---	0.00	29.895 
01:35	67.9	67.9	67.9	77	60.4	0	1	248	0.00	29.895 
01:40	67.8	67.8	67.8	77	60.3	0	1	248	0.00	29.895 
01:45	67.6	67.6	67.6	77	60.1	0	2	248	0.00	29.893 
01:50	67.6	67.6	67.6	77	60.1	0	1	248	0.00	29.893 
01:55	67.4	67.4	67.4	77	59.9	0	1	248	0.00	29.893 
02:00	67.4	67.4	67.4	77	59.9	0	1	248	0.00	29.896 
02:05	67.3	67.3	67.3	77	59.8	0	1	248	0.00	29.896 
02:10	67.3	67.3	67.3	77	59.8	0	0	---	0.00	29.896 
02:15	67.1	67.1	67.1	77	59.6	0	0	---	0.00	29.898 
02:20	67.1	67.1	67.1	77	59.6	0	1	248	0.00	29.898 
02:25	66.9	66.9	66.9	77	59.4	0	1	248	0.00	29.898 
02:30	66.8	66.8	66.8	78	59.7	0	1	248	0.00	29.901 
02:35	66.6	66.6	66.6	78	59.5	0	0	---	0.00	29.901 
02:40	66.4	66.4	66.4	78	59.3	0	2	248	0.00	29.901 
02:45	66.3	66.3	66.3	79	59.6	0	1	248	0.00	29.902 
02:50	66.3	66.3	66.3	79	59.6	0	2	248	0.00	29.902 
02:55	66.3	66.3	66.3	79	59.6	0	1	248	0.00	29.902 
03:00	66.3	66.3	66.3	79	59.6	0	1	248	0.00	29.902 
03:05	66.3	66.3	66.3	79	59.6	0	1	248	0.00	29.902 
03:10	66.3	66.3	66.3	79	59.6	0	1	248	0.00	29.902 
03:15	66.1	66.1	66.1	79	59.4	0	2	248	0.00	29.901 
03:20	66.1	66.1	66.1	80	59.7	0	0	---	0.00	29.901 
03:25	66.1	66.1	66.1	80	59.7	0	2	248	0.00	29.901 
03:30	66.0	66.0	66.0	80	59.6	0	1	248	0.00	29.900 
03:35	66.0	66.0	66.0	80	59.6	0	1	248	0.00	29.900 
03:40	65.8	65.8	65.8	80	59.5	0	2	248	0.00	29.900 
03:45	65.8	65.8	65.8	81	59.8	0	1	248	0.00	29.901 
03:50	65.8	65.8	65.8	81	59.8	0	1	248	0.00	29.901 
03:55	65.6	65.6	65.6	81	59.6	0	1	248	0.00	29.901 
04:00	65.6	65.6	65.6	81	59.6	0	1	248	0.00	29.903 
04:05	65.6	65.6	65.6	81	59.6	0	1	248	0.00	29.903 
04:10	65.5	65.5	65.5	81	59.5	0	1	248	0.00	29.903 
04:15	65.5	65.5	65.5	81	59.5	0	2	248	0.00	29.911 
04:20	65.5	65.5	65.5	81	59.5	0	1	248	0.00	29.911 
04:25	65.5	65.5	65.5	81	59.5	0	1	248	0.00	29.911 
04:30	65.5	65.5	65.5	82	59.9	0	1	248	0.00	29.912 
04:35	65.3	65.3	65.3	82	59.7	0	0	---	0.00	29.912 
04:40	65.2	65.2	65.2	82	59.6	0	1	248	0.00	29.912 
04:45	65.2	65.2	65.2	82	59.6	0	1	248	0.00	29.915 
04:50	65.0	65.0	65.0	83	59.7	0	1	248	0.00	29.915 
04:55	65.0	65.0	65.0	83	59.7	0	1	248	0.00	29.915 
05:00	65.0	65.0	65.0	83	59.7	0	2	248	0.00	29.915 
05:05	64.8	64.8	64.8	83	59.5	0	0	---	0.00	29.915 
05:10	64.8	64.8	64.8	83	59.5	0	1	248	0.00	29.915 
05:15	64.7	64.7	64.7	84	59.7	0	1	248	0.00	29.923 
05:20	64.7	64.7	64.7	84	59.7	0	1	248	0.00	29.923 
05:25	64.5	64.5	64.5	84	59.6	0	1	248	0.00	29.923 
05:30	64.5	64.5	64.5	84	59.6	0	0	---	0.00	29.930 
05:35	64.5	64.5	64.5	84	59.6	0	1	248	0.00	29.930 
05:40	64.5	64.5	64.5	84	59.6	0	1	248	0.00	29.930 
05:45	64.7	64.7	64.7	85	60.1	0	2	248	0.00	29.936 
05:50	64.7	64.7	64.7	85	60.1	0	1	248	0.00	29.936 
05:55	64.8	64.8	64.8	84	59.8	0	3	248	0.00	29.936 
06:00	64.8	64.8	64.8	84	59.8	0	1	248	0.00	29.938 
06:05	65.0	65.0	65.0	84	60.0	0	1	248	0.00	29.938 
06:10	65.0	65.0	65.0	84	60.0	0	1	248	0.00	29.938 
06:15	65.0	65.0	65.0	84	60.0	0	1	248	0.00	29.942 
06:20	64.8	64.8	64.8	84	59.8	0	1	248	0.00	29.942 
06:25	64.8	64.8	64.8	84	59.8	0	1	248	0.00	29.942 
06:30	64.7	64.7	64.7	84	59.7	0	1	248	0.00	29.945 
06:35	64.7	64.7	64.7	84	59.7	0	1	248	0.00	29.945 
06:40	64.7	64.7	64.7	85	60.1	0	1	248	0.00	29.945 
06:45	64.7	64.7	64.7	85	60.1	0	2	248	0.00	29.942 
06:50	64.5	64.5	64.5	85	59.9	0	2	248	0.00	29.942 
06:55	64.7	64.7	64.7	85	60.1	1	4	248	0.00	29.942 
07:00	64.8	64.8	64.8	85	60.2	0	1	248	0.00	29.945 
07:05	64.8	64.8	64.8	85	60.2	0	3	248	0.00	29.945 
07:10	65.0	65.0	65.0	85	60.4	0	1	248	0.00	29.945 
07:15	65.2	65.2	65.2	85	60.6	0	1	248	0.00	29.952 
07:20	65.5	65.5	65.5	84	60.5	0	2	248	0.00	29.952 
07:25	65.6	65.6	65.6	84	60.6	0	2	248	0.00	29.952 
07:30	66.0	66.0	66.0	83	60.7	0	3	248	0.00	29.956 
07:35	66.3	66.3	66.3	83	61.0	1	2	248	0.00	29.956 
07:40	66.8	66.8	66.8	82	61.1	1	4	270	0.00	29.956 
07:45	67.1	67.1	67.1	81	61.1	0	3	270	0.00	29.960 
07:50	67.4	67.4	67.4	81	61.4	0	2	270	0.00	29.960 
07:55	67.8	67.8	67.8	80	61.4	1	4	270	0.00	29.960 
08:00	68.1	68.1	68.1	79	61.3	0	2	270	0.00	29.959 
08:05	68.4	68.4	68.4	78	61.3	0	3	225	0.00	29.959 
08:10	68.8	68.8	68.8	78	61.7	0	3	225	0.00	29.959 
08:15	68.9	68.9	68.9	77	61.4	1	4	225	0.00	29.954 
08:20	68.8	68.8	68.8	78	61.7	1	3	292	0.00	29.954 
08:25	69.1	69.1	69.1	77	61.6	2	7	248	0.00	29.954 
08:30	69.4	69.4	69.4	77	61.9	1	4	248	0.00	29.957 
08:35	69.9	69.9	69.9	77	62.3	0	2	248	0.00	29.957 
08:40	70.3	70.3	70.3	76	62.4	1	3	225	0.00	29.957 
08:45	70.6	70.6	70.6	76	62.7	0	2	225	0.00	29.951 
08:50	70.9	70.9	70.9	75	62.6	1	3	225	0.00	29.951 
08:55	71.3	71.3	71.3	74	62.6	1	3	225	0.00	29.951 
09:00	71.5	71.5	71.5	73	62.4	1	3	270	0.00	29.959 
09:05	71.6	71.6	71.6	73	62.5	1	3	248	0.00	29.959 
09:10	71.8	71.8	71.8	72	62.3	1	4	248	0.00	29.959 
09:15	71.8	71.8	71.8	72	62.3	2	9	270	0.00	29.963 
09:20	72.0	72.0	72.0	72	62.5	2	4	248	0.00	29.963 
09:25	72.3	72.3	72.3	72	62.8	1	3	270	0.00	29.963 
09:30	73.0	73.0	73.0	71	63.0	0	3	270	0.00	29.966 
09:35	73.0	73.0	73.0	70	62.6	1	5	270	0.00	29.966 
09:40	73.3	73.3	73.3	71	63.3	1	3	270	0.00	29.966 
09:45	73.7	73.7	73.7	69	62.9	1	4	292	0.00	29.959 
09:50	73.9	73.9	73.9	68	62.7	1	4	292	0.00	29.959 
09:55	73.9	73.9	73.9	69	63.1	1	5	292	0.00	29.959 
10:00	73.9	73.9	73.9	69	63.1	1	5	292	0.00	29.961 
10:05	73.9	73.9	73.9	69	63.1	2	6	292	0.00	29.961 
10:10	73.9	73.9	73.9	69	63.1	1	3	292	0.00	29.961 
10:15	74.2	74.2	74.2	68	62.9	1	4	270	0.00	29.965 
10:20	74.7	74.7	74.7	69	63.8	1	3	90	0.00	29.965 
10:25	75.3	75.3	77.1	68	64.0	0	3	90	0.00	29.965 
10:30	75.8	75.8	77.6	67	64.0	1	2	90	0.00	29.962 
10:35	75.4	75.4	77.3	66	63.2	2	5	292	0.00	29.962 
10:40	75.1	75.1	77.0	67	63.4	1	4	112	0.00	29.962 
10:45	74.7	74.7	74.7	68	63.4	1	4	270	0.00	29.957 
10:50	75.3	75.3	77.0	69	64.4	1	3	270	0.00	29.957 
10:55	75.6	75.6	77.4	67	63.9	1	4	270	0.00	29.957 
11:00	76.1	76.1	77.9	66	63.9	1	3	270	0.00	29.960 
11:05	76.7	76.7	78.5	67	64.9	1	3	315	0.00	29.960 
11:10	76.8	76.8	78.6	67	65.0	1	3	270	0.00	29.960 
11:15	77.0	77.0	78.8	65	64.3	1	3	248	0.00	29.957 
11:20	77.0	77.0	78.8	65	64.3	1	3	292	0.00	29.957 
11:25	77.4	77.4	79.2	65	64.7	1	9	68	0.00	29.957 
11:30	77.7	77.7	79.4	62	63.6	1	5	248	0.00	29.955 
11:35	77.6	77.6	79.3	61	63.1	1	6	248	0.00	29.955 
11:40	76.8	76.8	78.6	63	63.2	1	4	90	0.00	29.955 
11:45	76.5	76.5	78.3	63	62.9	1	5	90	0.00	29.955 
11:50	76.8	76.8	78.6	64	63.7	1	4	315	0.00	29.955 
11:55	77.6	77.6	79.4	62	63.5	1	5	338	0.00	29.955 
12:00	78.1	78.1	79.9	62	64.0	1	4	248	0.00	29.948 
12:05	78.5	78.5	80.2	60	63.4	1	4	248	0.00	29.948 
12:10	78.1	78.1	79.7	59	62.6	2	6	248	0.00	29.948 
12:15	77.2	77.2	78.9	60	62.2	1	4	248	0.00	29.955 
12:20	77.2	77.2	79.0	62	63.2	1	4	270	0.00	29.955 
12:25	77.7	77.7	79.5	65	65.0	1	4	270	0.00	29.955 
12:30	77.9	77.9	79.8	66	65.6	0	3	270	0.00	29.948 
12:35	77.7	77.7	79.5	64	64.5	0	2	270	0.00	29.948 
12:40	77.4	77.4	79.2	65	64.7	1	3	270	0.00	29.948 
12:45	77.0	77.0	78.8	66	64.8	0	3	68	0.02	29.941 
12:50	76.0	76.0	77.5	73	66.7	0	4	315	0.02	29.941 
12:55	74.4	74.4	74.4	76	66.3	1	3	315	0.00	29.941 
13:00	73.3	73.3	73.3	78	66.0	0	3	315	0.00	29.936 
13:05	73.0	73.0	73.0	80	66.5	0	2	315	0.00	29.936 
13:10	73.0	73.0	73.0	80	66.5	1	4	315	0.00	29.936 
13:15	72.7	72.7	72.7	81	66.5	1	4	315	0.01	29.950 
13:20	72.0	72.0	72.0	82	66.2	1	4	315	0.03	29.950 
13:25	71.1	71.1	71.1	83	65.7	0	2	292	0.06	29.950 
13:30	70.6	70.6	70.6	84	65.5	0	1	292	0.00	29.944 
13:35	70.1	70.1	70.1	85	65.4	0	1	292	0.12	29.944 
13:40	69.4	69.4	69.4	86	65.0	1	5	292	0.13	29.944 
13:45	68.3	68.3	68.3	85	63.6	2	11	270	0.24	29.969 
13:50	66.6	66.6	66.6	88	62.9	3	15	270	0.11	29.969 
13:55	66.4	66.4	66.4	89	63.1	1	2	315	0.02	29.969 
14:00	66.6	66.6	66.6	90	63.6	0	3	315	0.01	29.959 
14:05	66.8	66.8	66.8	91	64.1	0	2	270	0.01	29.959 
14:10	66.9	66.9	66.9	91	64.2	0	1	270	0.00	29.959 
14:15	67.3	67.3	67.3	92	64.9	0	0	---	0.00	29.958 
14:20	67.4	67.4	67.4	92	65.0	0	1	270	0.00	29.958 
14:25	67.3	67.3	67.3	92	64.9	0	1	270	0.06	29.958 
14:30	66.9	66.9	66.9	92	64.5	1	5	270	0.24	29.976 
14:35	64.7	64.7	64.7	90	61.7	2	6	270	0.22	29.976 
14:40	64.0	64.0	64.0	91	61.3	1	3	270	0.08	29.976 
14:45	64.3	64.3	64.3	92	61.9	1	4	270	0.04	29.966 
14:50	64.7	64.7	64.7	93	62.6	1	4	270	0.01	29.966 
14:55	65.0	65.0	65.0	93	62.9	2	5	270	0.00	29.966 
15:00	65.3	65.3	65.3	93	63.2	1	4	270	0.00	29.961 
15:05	65.5	65.5	65.5	93	63.4	0	1	270	0.00	29.961 
15:10	65.8	65.8	65.8	93	63.7	0	1	270	0.00	29.961 
15:15	66.1	66.1	66.1	93	64.0	0	0	---	0.00	29.976 
15:20	66.8	66.8	66.8	94	65.0	0	1	270	0.00	29.976 
15:25	67.6	67.6	67.6	94	65.8	0	0	---	0.00	29.976 
15:30	68.4	68.4	68.4	94	66.6	0	4	270	0.00	29.964 
15:35	68.4	68.4	68.4	94	66.6	0	1	270	0.00	29.964 
15:40	68.6	68.6	68.6	94	66.8	0	1	270	0.00	29.964 
15:45	68.6	68.6	68.6	93	66.5	0	2	270	0.00	29.969 
15:50	68.4	68.4	68.4	93	66.3	1	3	270	0.00	29.969 
15:55	68.6	68.6	68.6	93	66.5	1	3	270	0.00	29.969 
16:00	68.6	68.6	68.6	92	66.2	1	3	270	0.00	29.972 
16:05	68.8	68.8	68.8	92	66.4	1	5	270	0.00	29.972 
16:10	69.1	69.1	69.1	91	66.4	0	3	270	0.00	29.972 
16:15	69.4	69.4	69.4	89	66.0	2	5	270	0.00	29.972 
16:20	70.1	70.1	70.1	86	65.7	2	6	270	0.00	29.972 
16:25	70.6	70.6	70.6	82	64.8	3	6	315	0.00	29.972 
16:30	71.1	71.1	71.1	80	64.6	2	5	270	0.00	29.965 
16:35	71.3	71.3	71.3	77	63.7	3	6	270	0.00	29.965 
16:40	71.6	71.6	71.6	77	64.0	3	7	270	0.00	29.965 
16:45	72.0	72.0	72.0	76	64.0	2	6	270	0.00	29.962 
16:50	72.7	72.7	72.7	76	64.7	1	4	270	0.00	29.962 
16:55	73.2	73.2	73.2	75	64.8	2	5	270	0.00	29.962 
17:00	73.9	73.9	73.9	73	64.7	2	4	292	0.00	29.962 
17:05	74.2	74.2	74.2	73	65.0	3	7	315	0.00	29.962 
17:10	74.9	74.9	74.9	71	64.8	2	6	270	0.00	29.962 
17:15	75.1	75.1	76.7	71	65.0	3	6	270	0.00	29.954 
17:20	74.7	74.7	74.7	71	64.7	2	5	270	0.00	29.954 
17:25	73.9	73.9	73.9	72	64.3	3	6	270	0.00	29.954 
17:30	73.3	73.3	73.3	73	64.1	3	5	270	0.00	29.974 
17:35	73.0	73.0	73.0	73	63.8	3	6	270	0.00	29.974 
17:40	72.7	72.7	72.7	74	63.9	3	4	292	0.00	29.974 
17:45	72.5	72.5	72.5	74	63.7	1	3	292	0.00	29.973 
17:50	72.3	72.3	72.3	74	63.5	1	4	292	0.00	29.973 
17:55	72.0	72.0	72.0	73	62.9	2	5	292	0.00	29.973 
18:00	71.6	71.6	71.6	69	60.9	2	6	292	0.00	29.972 
18:05	71.5	71.5	71.5	68	60.4	2	5	270	0.00	29.972 
18:10	71.3	71.3	71.3	69	60.6	1	3	270	0.00	29.972 
18:15	71.3	71.3	71.3	69	60.6	1	2	270	0.00	29.969 
18:20	71.3	71.3	71.3	68	60.2	1	4	270	0.00	29.969 
18:25	71.5	71.5	71.5	69	60.8	0	2	270	0.00	29.969 
18:30	71.6	71.6	71.6	69	60.9	0	1	270	0.00	29.973 
18:35	71.6	71.6	71.6	69	60.9	0	1	270	0.00	29.973 
18:40	71.5	71.5	71.5	69	60.8	0	1	270	0.00	29.973 
18:45	71.5	71.5	71.5	70	61.2	0	2	270	0.00	29.971 
18:50	71.5	71.5	71.5	71	61.6	0	1	270	0.00	29.971 
18:55	71.5	71.5	71.5	71	61.6	0	2	270	0.00	29.971 
19:00	71.6	71.6	71.6	71	61.7	0	1	270	0.00	29.972 
19:05	71.5	71.5	71.5	71	61.6	0	2	270	0.00	29.972 
19:10	71.5	71.5	71.5	72	62.0	0	1	270	0.00	29.972 
19:15	71.5	71.5	71.5	73	62.4	0	2	270	0.00	29.970 
19:20	71.5	71.5	71.5	73	62.4	0	1	270	0.00	29.970 
19:25	71.6	71.6	71.6	72	62.1	0	0	---	0.00	29.970 
19:30	72.1	72.1	72.1	72	62.6	0	2	270	0.00	29.970 
19:35	72.5	72.5	72.5	72	62.9	0	2	270	0.00	29.970 
19:40	72.8	72.8	72.8	71	62.8	0	2	270	0.00	29.970 
19:45	73.0	73.0	73.0	71	63.0	0	1	270	0.00	29.972 
19:50	73.2	73.2	73.2	70	62.8	0	2	270	0.00	29.972 
19:55	73.3	73.3	73.3	70	62.9	0	2	270	0.00	29.972 
20:00	73.5	73.5	73.5	70	63.1	0	1	270	0.00	29.972 
20:05	73.3	73.3	73.3	70	62.9	0	1	270	0.00	29.972 
20:10	73.2	73.2	73.2	70	62.8	0	1	270	0.00	29.972 
20:15	73.0	73.0	73.0	71	63.0	0	0	---	0.00	29.970 
20:20	72.7	72.7	72.7	72	63.1	0	0	---	0.00	29.970 
20:25	72.5	72.5	72.5	73	63.3	0	0	---	0.00	29.970 
20:30	72.0	72.0	72.0	73	62.9	0	1	270	0.00	29.974 
20:35	71.8	71.8	71.8	73	62.7	0	0	---	0.00	29.974 
20:40	71.5	71.5	71.5	74	62.8	0	0	---	0.00	29.974 
20:45	71.3	71.3	71.3	74	62.6	0	0	---	0.00	29.975 
20:50	71.1	71.1	71.1	75	62.8	0	0	---	0.00	29.975 
20:55	71.1	71.1	71.1	75	62.8	0	0	---	0.00	29.975 
21:00	71.1	71.1	71.1	72	61.6	2	5	270	0.00	29.990 
21:05	71.1	71.1	71.1	67	59.6	2	6	292	0.00	29.990 
21:10	70.9	70.9	70.9	67	59.4	1	4	292	0.00	29.990 
21:15	70.8	70.8	70.8	66	58.9	1	3	292	0.00	29.999 
21:20	70.4	70.4	70.4	66	58.5	0	3	292	0.00	29.999 
21:25	70.1	70.1	70.1	67	58.6	1	4	292	0.00	29.999 
21:30	69.8	69.8	69.8	68	58.7	0	3	292	0.00	30.005 
21:35	69.4	69.4	69.4	69	58.8	0	2	292	0.00	30.005 
21:40	69.1	69.1	69.1	69	58.5	0	1	292	0.00	30.005 
21:45	68.8	68.8	68.8	70	58.6	0	2	292	0.00	30.016 
21:50	68.6	68.6	68.6	70	58.4	0	2	292	0.00	30.016 
21:55	68.4	68.4	68.4	71	58.6	0	1	292	0.00	30.016 
22:00	68.1	68.1	68.1	72	58.7	0	1	292	0.00	30.024 
22:05	67.9	67.9	67.9	72	58.5	0	0	---	0.00	30.024 
22:10	67.8	67.8	67.8	73	58.8	0	0	---	0.00	30.024 
22:15	67.6	67.6	67.6	73	58.6	0	0	---	0.00	30.030 
22:20	67.4	67.4	67.4	73	58.4	0	0	---	0.00	30.030 
22:25	67.3	67.3	67.3	74	58.7	0	0	---	0.00	30.030 
22:30	67.1	67.1	67.1	74	58.5	0	0	---	0.00	30.033 
22:35	66.9	66.9	66.9	75	58.7	0	0	---	0.00	30.033 
22:40	66.6	66.6	66.6	75	58.4	0	0	---	0.00	30.033 
22:45	66.4	66.4	66.4	76	58.6	0	0	---	0.00	30.046 
22:50	66.3	66.3	66.3	76	58.5	0	0	---	0.00	30.046 
22:55	66.1	66.1	66.1	76	58.3	0	1	292	0.00	30.046 
23:00	66.1	66.1	66.1	76	58.3	0	1	292	0.00	30.049 
23:05	66.1	66.1	66.1	76	58.3	0	2	292	0.00	30.049 
23:10	66.0	66.0	66.0	76	58.2	0	1	292	0.00	30.049 
23:15	66.0	66.0	66.0	76	58.2	0	1	292	0.00	30.048 
23:20	65.8	65.8	65.8	76	58.0	0	1	292	0.00	30.048 
23:25	65.6	65.6	65.6	76	57.8	0	1	292	0.00	30.048 
23:30	65.3	65.3	65.3	76	57.5	0	0	---	0.00	30.052 
23:35	65.2	65.2	65.2	77	57.8	0	0	---	0.00	30.052 
23:40	65.0	65.0	65.0	77	57.6	0	1	292	0.00	30.052 
23:45	64.8	64.8	64.8	77	57.4	0	0	---	0.00	30.055 
23:50	64.7	64.7	64.7	77	57.3	0	0	---	0.00	30.055 
23:55	64.5	64.5	64.5	77	57.1	0	0	---	0.00	30.055 

CoCoRaHS
IN-AL-39
A2 Web Hosting
Creative Commons License
GoDaddy
search engine by freefind advanced

loaded 2018-11-20 03:07:29 • last modified 2010-11-18 10:43:29
Privacy PolicyDisclaimer
• wx.awcolley.com is powered by PmWiki v.2002016 •
• all content (unless otherwise noted) © 2018 A W Colley